createdAt,value
2019-01-14T00:00:05.090Z,921.7
2019-01-14T00:01:05.023Z,921.7
2019-01-14T00:02:04.905Z,921.6
2019-01-14T00:03:04.786Z,921.7
2019-01-14T00:04:04.700Z,921.7
2019-01-14T00:05:04.585Z,921.8
2019-01-14T00:06:11.150Z,921.9
2019-01-14T00:07:11.038Z,921.7
2019-01-14T00:08:11.349Z,921.8
2019-01-14T00:09:11.281Z,921.7
2019-01-14T00:10:11.178Z,921.7
2019-01-14T00:11:11.080Z,921.7
2019-01-14T00:12:11.001Z,921.7
2019-01-14T00:13:10.745Z,921.7
2019-01-14T00:14:10.690Z,921.6
2019-01-14T00:15:10.609Z,921.6
2019-01-14T00:16:10.325Z,921.5
2019-01-14T00:17:10.238Z,921.5
2019-01-14T00:18:10.577Z,921.3
2019-01-14T00:19:10.477Z,921.4
2019-01-14T00:20:10.388Z,921.3
2019-01-14T00:21:10.272Z,921.5
2019-01-14T00:22:10.170Z,921.4
2019-01-14T00:23:10.064Z,921.4
2019-01-14T00:24:09.941Z,921.5
2019-01-14T00:25:09.839Z,921.4
2019-01-14T00:26:11.618Z,921.4
2019-01-14T00:27:11.526Z,921.5
2019-01-14T00:28:11.835Z,921.5
2019-01-14T00:29:11.746Z,921.5
2019-01-14T00:30:11.670Z,921.3
2019-01-14T00:31:11.570Z,921.2
2019-01-14T00:32:11.480Z,921.3
2019-01-14T00:33:11.375Z,921.3
2019-01-14T00:34:11.277Z,921.2
2019-01-14T00:35:11.172Z,921.1
2019-01-14T00:36:18.500Z,921.1
2019-01-14T00:37:18.432Z,921.1
2019-01-14T00:38:18.738Z,921.2
2019-01-14T00:39:18.640Z,921.2
2019-01-14T00:40:18.600Z,921.3
2019-01-14T00:41:18.506Z,921.1
2019-01-14T00:42:18.397Z,921.1
2019-01-14T00:43:18.266Z,921.1
2019-01-14T00:44:18.162Z,920.9
2019-01-14T00:45:18.068Z,921
2019-01-14T00:46:17.958Z,920.9
2019-01-14T00:47:17.863Z,919.3
2019-01-14T00:48:18.174Z,920.8
2019-01-14T00:49:18.070Z,920.6
2019-01-14T00:50:17.956Z,920.6
2019-01-14T00:51:17.848Z,920.7
2019-01-14T00:52:17.759Z,920.7
2019-01-14T00:53:17.648Z,920.6
2019-01-14T00:54:17.599Z,920.7
2019-01-14T00:55:17.474Z,920.5
2019-01-14T00:56:17.375Z,920.7
2019-01-14T00:57:17.308Z,919.6
2019-01-14T00:58:17.602Z,920.5
2019-01-14T00:59:17.539Z,920.6
2019-01-14T01:00:17.435Z,919.8
2019-01-14T01:01:17.352Z,920.6
2019-01-14T01:02:17.243Z,920.5
2019-01-14T01:03:17.112Z,920.6
2019-01-14T01:04:17.038Z,920.5
2019-01-14T01:05:16.930Z,920.5
2019-01-14T01:06:16.834Z,920.3
2019-01-14T01:07:16.744Z,920.4
2019-01-14T01:08:17.048Z,920.5
2019-01-14T01:09:16.938Z,920.4
2019-01-14T01:10:16.842Z,920.5
2019-01-14T01:11:16.764Z,920.5
2019-01-14T01:12:16.650Z,920.6
2019-01-14T01:13:16.541Z,920.6
2019-01-14T01:14:16.432Z,920.6
2019-01-14T01:15:16.328Z,920.6
2019-01-14T01:16:16.219Z,920.6
2019-01-14T01:17:16.140Z,920.5
2019-01-14T01:18:16.480Z,920.6
2019-01-14T01:19:16.373Z,920.6
2019-01-14T01:20:16.286Z,920.5
2019-01-14T01:21:16.176Z,920.6
2019-01-14T01:22:16.074Z,920.7
2019-01-14T01:23:16.009Z,920.6
2019-01-14T01:24:15.895Z,920.6
2019-01-14T01:25:15.781Z,920.5
2019-01-14T01:26:15.648Z,920.4
2019-01-14T01:27:15.534Z,920.5
2019-01-14T01:28:15.849Z,920.5
2019-01-14T01:29:15.775Z,920.6
2019-01-14T01:30:15.671Z,920.4
2019-01-14T01:31:15.574Z,920.4
2019-01-14T01:32:15.464Z,920.4
2019-01-14T01:33:15.359Z,920.6
2019-01-14T01:34:15.261Z,920.6
2019-01-14T01:35:15.048Z,920.5
2019-01-14T01:36:14.942Z,920.4
2019-01-14T01:37:16.102Z,920.6
2019-01-14T01:38:16.408Z,920.6
2019-01-14T01:39:16.319Z,920.7
2019-01-14T01:40:16.199Z,920.8
2019-01-14T01:41:16.154Z,920.6
2019-01-14T01:42:16.031Z,920.8
2019-01-14T01:43:15.918Z,920.8
2019-01-14T01:44:15.814Z,921
2019-01-14T01:45:15.734Z,921.1
2019-01-14T01:46:15.636Z,921
2019-01-14T01:47:15.539Z,921.1
2019-01-14T01:48:15.921Z,921.1
2019-01-14T01:49:15.811Z,921.2
2019-01-14T01:50:15.789Z,921.3
2019-01-14T01:51:15.692Z,921.3
2019-01-14T01:52:15.595Z,921.2
2019-01-14T01:53:15.487Z,921.2
2019-01-14T01:54:15.387Z,921.3
2019-01-14T01:55:15.269Z,921.5
2019-01-14T01:56:15.183Z,921.6
2019-01-14T01:57:15.923Z,921.7
2019-01-14T01:58:16.275Z,921.6
2019-01-14T01:59:16.167Z,921.8
2019-01-14T02:00:16.089Z,922
2019-01-14T02:01:16.010Z,922.1
2019-01-14T02:02:15.918Z,922.3
2019-01-14T02:03:15.821Z,922.2
2019-01-14T02:04:15.707Z,921.5
2019-01-14T02:05:15.609Z,922.3
2019-01-14T02:06:15.523Z,922.3
2019-01-14T02:07:15.425Z,920.9
2019-01-14T02:08:15.756Z,922.5
2019-01-14T02:09:15.640Z,922.5
2019-01-14T02:10:15.549Z,922.6
2019-01-14T02:11:15.435Z,922.5
2019-01-14T02:12:15.355Z,922.7
2019-01-14T02:13:15.301Z,922.8
2019-01-14T02:14:15.194Z,922.8
2019-01-14T02:15:15.089Z,922.8
2019-01-14T02:16:14.981Z,922.7
2019-01-14T02:17:14.867Z,921.5
2019-01-14T02:18:15.222Z,922.6
2019-01-14T02:19:15.096Z,922.6
2019-01-14T02:20:14.992Z,922.4
2019-01-14T02:21:14.869Z,922.6
2019-01-14T02:22:14.767Z,922.6
2019-01-14T02:23:14.678Z,922.8
2019-01-14T02:24:14.572Z,922.7
2019-01-14T02:25:14.470Z,922.8
2019-01-14T02:26:14.353Z,922.9
2019-01-14T02:27:14.259Z,922.9
2019-01-14T02:28:14.589Z,923
2019-01-14T02:29:14.471Z,923
2019-01-14T02:30:14.384Z,922.9
2019-01-14T02:31:14.289Z,923
2019-01-14T02:32:14.173Z,923.1
2019-01-14T02:33:14.057Z,921.9
2019-01-14T02:34:13.947Z,923
2019-01-14T02:35:13.893Z,923
2019-01-14T02:36:13.766Z,921.6
2019-01-14T02:37:13.691Z,923
2019-01-14T02:38:14.006Z,923.2
2019-01-14T02:39:13.923Z,923.2
2019-01-14T02:40:13.821Z,923.2
2019-01-14T02:41:13.697Z,923
2019-01-14T02:42:13.588Z,922.9
2019-01-14T02:43:13.489Z,923.1
2019-01-14T02:44:13.381Z,923.2
2019-01-14T02:45:13.314Z,923.1
2019-01-14T02:46:13.227Z,921.6
2019-01-14T02:47:13.110Z,923.2
2019-01-14T02:48:13.450Z,923.1
2019-01-14T02:49:13.338Z,923.2
2019-01-14T02:50:13.249Z,923.3
2019-01-14T02:51:13.201Z,923.3
2019-01-14T02:52:12.921Z,923.3
2019-01-14T02:53:12.815Z,923.4
2019-01-14T02:54:12.711Z,923.4
2019-01-14T02:55:12.467Z,923.4
2019-01-14T02:56:12.189Z,923.5
2019-01-14T02:57:11.984Z,923.6
2019-01-14T02:58:12.365Z,923.4
2019-01-14T02:59:12.243Z,923.4
2019-01-14T03:00:12.137Z,923.5
2019-01-14T03:01:12.041Z,923.5
2019-01-14T03:02:11.937Z,923.5
2019-01-14T03:03:11.834Z,923.5
2019-01-14T03:04:11.732Z,923.5
2019-01-14T03:05:11.631Z,923.5
2019-01-14T03:06:11.519Z,923.6
2019-01-14T03:07:11.415Z,923.5
2019-01-14T03:08:11.739Z,923.7
2019-01-14T03:09:11.611Z,923.6
2019-01-14T03:10:11.569Z,923.6
2019-01-14T03:11:11.484Z,923.6
2019-01-14T03:12:11.420Z,923.6
2019-01-14T03:13:11.315Z,923.7
2019-01-14T03:14:11.221Z,923.7
2019-01-14T03:15:11.133Z,923.7
2019-01-14T03:16:11.059Z,923.6
2019-01-14T03:17:10.939Z,923.7
2019-01-14T03:18:11.346Z,923.7
2019-01-14T03:19:11.224Z,923.7
2019-01-14T03:20:11.127Z,923.8
2019-01-14T03:21:11.020Z,923.7
2019-01-14T03:22:10.904Z,923.1
2019-01-14T03:23:10.799Z,923.7
2019-01-14T03:24:10.689Z,924
2019-01-14T03:25:10.623Z,923.2
2019-01-14T03:26:10.534Z,924
2019-01-14T03:27:10.444Z,923.9
2019-01-14T03:28:10.775Z,923.8
2019-01-14T03:29:10.669Z,923.9
2019-01-14T03:30:10.601Z,923.8
2019-01-14T03:31:10.524Z,923.8
2019-01-14T03:32:10.450Z,923.6
2019-01-14T03:33:10.357Z,923.7
2019-01-14T03:34:10.258Z,923.6
2019-01-14T03:35:10.180Z,923.8
2019-01-14T03:36:10.078Z,923.9
2019-01-14T03:37:09.965Z,923.7
2019-01-14T03:38:10.331Z,923.9
2019-01-14T03:39:10.234Z,923.8
2019-01-14T03:40:10.149Z,923.8
2019-01-14T03:41:10.060Z,923.8
2019-01-14T03:42:09.949Z,923.9
2019-01-14T03:43:09.865Z,923.8
2019-01-14T03:44:09.778Z,923.8
2019-01-14T03:45:09.678Z,923.9
2019-01-14T03:46:09.576Z,923.9
2019-01-14T03:47:09.506Z,923.9
2019-01-14T03:48:09.822Z,924
2019-01-14T03:49:09.707Z,924.1
2019-01-14T03:50:09.606Z,924.1
2019-01-14T03:51:09.516Z,924.2
2019-01-14T03:52:09.413Z,924.2
2019-01-14T03:53:09.316Z,924.2
2019-01-14T03:54:09.210Z,924.3
2019-01-14T03:55:09.098Z,924.3
2019-01-14T03:56:09.026Z,924.4
2019-01-14T03:57:08.936Z,924.4
2019-01-14T03:58:09.249Z,924.4
2019-01-14T03:59:09.202Z,924.5
2019-01-14T04:00:09.088Z,924.3
2019-01-14T04:01:08.958Z,924.6
2019-01-14T04:02:08.920Z,924.5
2019-01-14T04:03:08.810Z,924.5
2019-01-14T04:04:08.703Z,924.7
2019-01-14T04:05:08.616Z,924.6
2019-01-14T04:06:08.509Z,924.7
2019-01-14T04:07:14.734Z,924.8
2019-01-14T04:08:15.057Z,924.7
2019-01-14T04:09:14.952Z,924.8
2019-01-14T04:10:14.843Z,924.8
2019-01-14T04:11:14.731Z,924.9
2019-01-14T04:12:14.660Z,924.8
2019-01-14T04:13:14.550Z,924.8
2019-01-14T04:14:14.454Z,924.9
2019-01-14T04:15:14.352Z,925
2019-01-14T04:16:14.224Z,924.8
2019-01-14T04:17:14.126Z,924.8
2019-01-14T04:18:14.435Z,924.8
2019-01-14T04:19:14.338Z,924.8
2019-01-14T04:20:14.238Z,925
2019-01-14T04:21:14.142Z,924.8
2019-01-14T04:22:14.042Z,925
2019-01-14T04:23:13.930Z,924.9
2019-01-14T04:24:13.828Z,924.9
2019-01-14T04:25:13.741Z,925
2019-01-14T04:26:13.628Z,925
2019-01-14T04:27:13.535Z,925
2019-01-14T04:28:13.850Z,924.9
2019-01-14T04:29:13.732Z,925
2019-01-14T04:30:13.637Z,924.9
2019-01-14T04:31:13.518Z,925
2019-01-14T04:32:13.255Z,924.9
2019-01-14T04:33:12.994Z,925
2019-01-14T04:34:12.889Z,924.9
2019-01-14T04:35:12.621Z,924.8
2019-01-14T04:36:12.386Z,924.9
2019-01-14T04:37:12.301Z,924.9
2019-01-14T04:38:12.582Z,924.9
2019-01-14T04:39:12.477Z,925
2019-01-14T04:40:12.380Z,925
2019-01-14T04:41:12.264Z,925.1
2019-01-14T04:42:12.171Z,925.1
2019-01-14T04:43:12.065Z,924.9
2019-01-14T04:44:11.957Z,925
2019-01-14T04:45:11.907Z,925
2019-01-14T04:46:11.791Z,925
2019-01-14T04:47:11.686Z,925
2019-01-14T04:48:12.042Z,925
2019-01-14T04:49:11.937Z,925.1
2019-01-14T04:50:11.855Z,925
2019-01-14T04:51:11.763Z,924.9
2019-01-14T04:52:11.715Z,924.9
2019-01-14T04:53:11.616Z,924.8
2019-01-14T04:54:11.500Z,924.7
2019-01-14T04:55:11.226Z,924.9
2019-01-14T04:56:10.962Z,924.9
2019-01-14T04:57:10.843Z,924.8
2019-01-14T04:58:11.184Z,924.9
2019-01-14T04:59:11.056Z,924.9
2019-01-14T05:00:10.929Z,924.8
2019-01-14T05:01:10.821Z,924.9
2019-01-14T05:02:10.719Z,924.9
2019-01-14T05:03:10.597Z,924.8
2019-01-14T05:04:10.486Z,924.9
2019-01-14T05:05:10.374Z,924.9
2019-01-14T05:06:10.271Z,924.9
2019-01-14T05:07:10.156Z,924.7
2019-01-14T05:08:10.465Z,924.8
2019-01-14T05:09:10.387Z,924.8
2019-01-14T05:10:10.326Z,924.8
2019-01-14T05:11:10.232Z,924.8
2019-01-14T05:12:10.115Z,924.9
2019-01-14T05:13:10.016Z,924.1
2019-01-14T05:14:09.955Z,924.9
2019-01-14T05:15:09.865Z,924.9
2019-01-14T05:16:09.747Z,924.8
2019-01-14T05:17:09.635Z,924.3
2019-01-14T05:18:09.954Z,924.9
2019-01-14T05:19:09.831Z,924.7
2019-01-14T05:20:09.759Z,924.9
2019-01-14T05:21:09.633Z,924.7
2019-01-14T05:22:09.368Z,924.8
2019-01-14T05:23:09.108Z,924.9
2019-01-14T05:24:08.841Z,924.8
2019-01-14T05:25:08.597Z,924.9
2019-01-14T05:26:08.321Z,925
2019-01-14T05:27:08.054Z,924.8
2019-01-14T05:28:08.379Z,925
2019-01-14T05:29:08.279Z,924.9
2019-01-14T05:30:08.188Z,924.9
2019-01-14T05:31:08.095Z,925
2019-01-14T05:32:08.005Z,925.1
2019-01-14T05:33:07.914Z,925
2019-01-14T05:34:08.037Z,925
2019-01-14T05:35:07.936Z,925
2019-01-14T05:36:07.883Z,925
2019-01-14T05:37:07.805Z,924.8
2019-01-14T05:38:08.459Z,925.1
2019-01-14T05:39:08.344Z,925.1
2019-01-14T05:40:08.257Z,925
2019-01-14T05:41:08.172Z,925
2019-01-14T05:42:08.060Z,925.1
2019-01-14T05:43:07.776Z,925.2
2019-01-14T05:44:07.682Z,925.1
2019-01-14T05:45:07.585Z,925.2
2019-01-14T05:46:07.482Z,925.2
2019-01-14T05:47:07.214Z,925.2
2019-01-14T05:48:07.501Z,925.2
2019-01-14T05:49:07.407Z,925.3
2019-01-14T05:50:07.311Z,925.2
2019-01-14T05:51:07.191Z,925.3
2019-01-14T05:52:07.083Z,925.2
2019-01-14T05:53:06.963Z,925.2
2019-01-14T05:54:06.839Z,925.2
2019-01-14T05:55:06.717Z,925.3
2019-01-14T05:56:06.625Z,925.3
2019-01-14T05:57:06.521Z,925.2
2019-01-14T05:58:06.842Z,925.3
2019-01-14T05:59:06.735Z,924.6
2019-01-14T06:00:06.617Z,925.3
2019-01-14T06:01:06.518Z,925.4
2019-01-14T06:02:06.404Z,925.5
2019-01-14T06:03:06.359Z,925.4
2019-01-14T06:04:06.238Z,925.3
2019-01-14T06:05:06.126Z,925.5
2019-01-14T06:06:06.058Z,925.4
2019-01-14T06:07:05.988Z,925.5
2019-01-14T06:08:06.275Z,925.5
2019-01-14T06:09:06.144Z,925.5
2019-01-14T06:10:06.039Z,925.5
2019-01-14T06:11:05.995Z,924
2019-01-14T06:12:05.880Z,925.3
2019-01-14T06:13:05.770Z,925.5
2019-01-14T06:14:05.662Z,925.6
2019-01-14T06:15:05.560Z,925.5
2019-01-14T06:16:05.448Z,925.5
2019-01-14T06:17:05.356Z,925.6
2019-01-14T06:18:05.679Z,925.5
2019-01-14T06:19:05.563Z,925.6
2019-01-14T06:20:05.450Z,925.6
2019-01-14T06:21:05.319Z,925.6
2019-01-14T06:22:05.235Z,925.5
2019-01-14T06:23:05.113Z,925.6
2019-01-14T06:24:04.985Z,925.6
2019-01-14T06:25:04.903Z,925.6
2019-01-14T06:26:04.783Z,925.5
2019-01-14T06:27:04.703Z,925.6
2019-01-14T06:28:04.992Z,925.6
2019-01-14T06:29:04.882Z,925.6
2019-01-14T06:30:04.764Z,925.7
2019-01-14T06:31:04.650Z,925.6
2019-01-14T06:32:04.538Z,925.6
2019-01-14T06:33:04.462Z,925.7
2019-01-14T06:34:04.361Z,925.6
2019-01-14T06:35:04.259Z,925.7
2019-01-14T06:36:04.168Z,925.7
2019-01-14T06:37:04.061Z,925.6
2019-01-14T06:38:04.446Z,925.5
2019-01-14T06:39:04.343Z,925.7
2019-01-14T06:40:04.234Z,925.6
2019-01-14T06:41:04.137Z,925.5
2019-01-14T06:42:08.356Z,925.7
2019-01-14T06:43:08.251Z,925.7
2019-01-14T06:44:08.149Z,925.5
2019-01-14T06:45:08.039Z,925.7
2019-01-14T06:46:07.929Z,925.7
2019-01-14T06:47:07.806Z,925.7
2019-01-14T06:48:08.122Z,925.7
2019-01-14T06:49:08.008Z,925.7
2019-01-14T06:50:07.902Z,925.8
2019-01-14T06:51:07.800Z,925.7
2019-01-14T06:52:07.692Z,925.6
2019-01-14T06:53:07.590Z,925.6
2019-01-14T06:54:07.475Z,925.8
2019-01-14T06:55:07.356Z,925.8
2019-01-14T06:56:07.238Z,925.7
2019-01-14T06:57:07.140Z,925.7
2019-01-14T06:58:07.498Z,925.8
2019-01-14T06:59:07.383Z,925.8
2019-01-14T07:00:07.278Z,925.9
2019-01-14T07:01:07.174Z,926
2019-01-14T07:02:07.109Z,926
2019-01-14T07:03:07.012Z,926
2019-01-14T07:04:06.908Z,925.9
2019-01-14T07:05:06.820Z,925.9
2019-01-14T07:06:06.700Z,926
2019-01-14T07:07:06.594Z,926
2019-01-14T07:08:06.923Z,926
2019-01-14T07:09:06.819Z,926.1
2019-01-14T07:10:06.754Z,926
2019-01-14T07:11:06.650Z,926
2019-01-14T07:12:06.582Z,926
2019-01-14T07:13:06.482Z,926.1
2019-01-14T07:14:06.364Z,926.1
2019-01-14T07:15:06.248Z,926.1
2019-01-14T07:16:06.138Z,926.2
2019-01-14T07:17:06.036Z,926.2
2019-01-14T07:18:06.377Z,926.3
2019-01-14T07:19:06.266Z,926.3
2019-01-14T07:20:06.151Z,926.3
2019-01-14T07:21:06.034Z,926.2
2019-01-14T07:22:05.935Z,926.2
2019-01-14T07:23:05.864Z,926.2
2019-01-14T07:24:05.744Z,926.1
2019-01-14T07:25:05.623Z,926.3
2019-01-14T07:26:05.537Z,926.3
2019-01-14T07:27:05.442Z,926.3
2019-01-14T07:28:05.783Z,926.4
2019-01-14T07:29:07.323Z,926.3
2019-01-14T07:30:07.208Z,926.5
2019-01-14T07:31:07.105Z,926.4
2019-01-14T07:32:06.846Z,926.4
2019-01-14T07:33:06.584Z,926.4
2019-01-14T07:34:06.316Z,926.5
2019-01-14T07:35:06.044Z,926.5
2019-01-14T07:36:05.778Z,926.4
2019-01-14T07:37:05.500Z,926.5
2019-01-14T07:38:07.984Z,926.5
2019-01-14T07:39:07.880Z,926.5
2019-01-14T07:40:07.762Z,926.6
2019-01-14T07:41:07.661Z,926.5
2019-01-14T07:42:07.560Z,926.4
2019-01-14T07:43:07.479Z,926.5
2019-01-14T07:44:07.380Z,926.5
2019-01-14T07:45:07.266Z,926.6
2019-01-14T07:46:07.154Z,926.6
2019-01-14T07:47:07.036Z,926.5
2019-01-14T07:48:07.336Z,926.5
2019-01-14T07:49:07.266Z,926.7
2019-01-14T07:50:07.144Z,926.5
2019-01-14T07:51:07.030Z,926.7
2019-01-14T07:52:06.923Z,926.6
2019-01-14T07:53:06.813Z,926.7
2019-01-14T07:54:06.708Z,926.7
2019-01-14T07:55:06.616Z,926.7
2019-01-14T07:56:06.500Z,926.7
2019-01-14T07:57:06.386Z,926.6
2019-01-14T07:58:06.700Z,926.6
2019-01-14T07:59:06.564Z,926.8
2019-01-14T08:00:06.471Z,926.8
2019-01-14T08:01:06.363Z,926.9
2019-01-14T08:02:06.244Z,926.8
2019-01-14T08:03:06.130Z,926.8
2019-01-14T08:04:06.026Z,926.7
2019-01-14T08:05:05.970Z,926.9
2019-01-14T08:06:05.854Z,926.9
2019-01-14T08:07:05.727Z,926.7
2019-01-14T08:08:06.066Z,926.9
2019-01-14T08:09:05.935Z,926.9
2019-01-14T08:10:05.854Z,926.7
2019-01-14T08:11:05.759Z,926.8
2019-01-14T08:12:05.475Z,926.8
2019-01-14T08:13:05.365Z,926.9
2019-01-14T08:14:05.095Z,927
2019-01-14T08:15:04.837Z,927
2019-01-14T08:16:04.551Z,927
2019-01-14T08:17:04.297Z,927
2019-01-14T08:18:04.628Z,926.9
2019-01-14T08:19:04.511Z,927
2019-01-14T08:20:04.415Z,926.9
2019-01-14T08:21:04.287Z,926.8
2019-01-14T08:22:04.200Z,926.9
2019-01-14T08:23:04.077Z,927
2019-01-14T08:24:03.974Z,927
2019-01-14T08:25:03.903Z,927
2019-01-14T08:26:03.819Z,926.8
2019-01-14T08:27:03.717Z,926.8
2019-01-14T08:28:04.029Z,926.8
2019-01-14T08:29:03.918Z,927
2019-01-14T08:30:03.827Z,926.8
2019-01-14T08:31:03.771Z,926.9
2019-01-14T08:32:03.650Z,926.9
2019-01-14T08:33:03.565Z,926.9
2019-01-14T08:34:03.470Z,927
2019-01-14T08:35:03.376Z,927
2019-01-14T08:36:03.259Z,926.7
2019-01-14T08:37:03.164Z,926.8
2019-01-14T08:38:03.491Z,927
2019-01-14T08:39:03.366Z,926.9
2019-01-14T08:40:03.277Z,927
2019-01-14T08:41:03.163Z,927
2019-01-14T08:42:03.123Z,927
2019-01-14T08:43:03.023Z,925.5
2019-01-14T08:44:02.933Z,927
2019-01-14T08:45:02.841Z,927.1
2019-01-14T08:46:02.720Z,927
2019-01-14T08:47:02.626Z,927
2019-01-14T08:48:02.927Z,926.9
2019-01-14T08:49:02.884Z,927
2019-01-14T08:50:02.787Z,927.1
2019-01-14T08:51:02.697Z,927.1
2019-01-14T08:52:02.413Z,927
2019-01-14T08:53:02.147Z,926.8
2019-01-14T08:54:01.865Z,926.4
2019-01-14T08:55:01.621Z,927.2
2019-01-14T08:56:01.381Z,927.1
2019-01-14T08:57:01.133Z,927.2
2019-01-14T08:58:01.450Z,927.2
2019-01-14T08:59:01.355Z,927.2
2019-01-14T09:00:01.312Z,927.2
2019-01-14T09:01:01.224Z,927.2
2019-01-14T09:02:01.145Z,927.2
2019-01-14T09:03:01.051Z,927.4
2019-01-14T09:04:00.945Z,927.4
2019-01-14T09:05:00.911Z,926.5
2019-01-14T09:06:00.817Z,927.3
2019-01-14T09:07:00.719Z,927.3
2019-01-14T09:08:01.059Z,927.3
2019-01-14T09:09:00.984Z,927.4
2019-01-14T09:10:01.138Z,927.4
2019-01-14T09:11:01.085Z,927.3
2019-01-14T09:12:00.981Z,927.5
2019-01-14T09:13:00.882Z,927.5
2019-01-14T09:14:00.769Z,927.5
2019-01-14T09:15:00.770Z,927.4
2019-01-14T09:16:00.663Z,927.4
2019-01-14T09:17:00.543Z,927.5
2019-01-14T09:18:03.840Z,927.4
2019-01-14T09:19:03.746Z,927.3
2019-01-14T09:20:03.656Z,927.5
2019-01-14T09:21:03.563Z,927.4
2019-01-14T09:22:03.490Z,927.4
2019-01-14T09:23:03.391Z,927.4
2019-01-14T09:24:03.269Z,927.4
2019-01-14T09:25:03.190Z,927
2019-01-14T09:26:03.083Z,927.2
2019-01-14T09:27:02.973Z,927.4
2019-01-14T09:28:03.319Z,927.4
2019-01-14T09:29:03.200Z,927.3
2019-01-14T09:30:03.121Z,927.4
2019-01-14T09:31:03.023Z,927.3
2019-01-14T09:32:02.918Z,927.2
2019-01-14T09:33:02.842Z,927.4
2019-01-14T09:34:02.756Z,927.4
2019-01-14T09:35:02.649Z,927.2
2019-01-14T09:36:02.552Z,927.4
2019-01-14T09:37:02.447Z,927.5
2019-01-14T09:38:02.845Z,927.5
2019-01-14T09:39:02.733Z,927.5
2019-01-14T09:40:02.641Z,927.6
2019-01-14T09:41:04.352Z,927.5
2019-01-14T09:42:04.283Z,927.5
2019-01-14T09:43:04.176Z,927.5
2019-01-14T09:44:03.934Z,927.4
2019-01-14T09:45:03.868Z,927.5
2019-01-14T09:46:03.604Z,927.5
2019-01-14T09:47:03.502Z,927.4
2019-01-14T09:48:03.802Z,927.5
2019-01-14T09:49:03.691Z,927.6
2019-01-14T09:50:03.620Z,927.6
2019-01-14T09:51:03.521Z,927.6
2019-01-14T09:52:03.420Z,927.4
2019-01-14T09:53:03.327Z,927.7
2019-01-14T09:54:03.225Z,927.7
2019-01-14T09:55:06.682Z,927.7
2019-01-14T09:56:06.571Z,926.3
2019-01-14T09:57:06.472Z,927.5
2019-01-14T09:58:06.769Z,927.7
2019-01-14T09:59:06.666Z,927.7
2019-01-14T10:00:06.582Z,927.7
2019-01-14T10:01:06.488Z,927.6
2019-01-14T10:02:06.392Z,927.8
2019-01-14T10:03:07.985Z,927.7
2019-01-14T10:04:07.871Z,927.8
2019-01-14T10:05:07.761Z,926.3
2019-01-14T10:06:07.675Z,927.8
2019-01-14T10:07:07.607Z,927.8
2019-01-14T10:08:08.056Z,927.9
2019-01-14T10:09:07.952Z,927.9
2019-01-14T10:10:07.842Z,927.8
2019-01-14T10:11:07.724Z,927.8
2019-01-14T10:12:07.647Z,927.8
2019-01-14T10:13:07.554Z,927.8
2019-01-14T10:14:07.463Z,927.8
2019-01-14T10:15:07.344Z,927.8
2019-01-14T10:16:07.250Z,927.8
2019-01-14T10:17:07.162Z,927.7
2019-01-14T10:18:07.510Z,927.8
2019-01-14T10:19:07.392Z,927.7
2019-01-14T10:20:07.304Z,927.7
2019-01-14T10:21:07.194Z,927.6
2019-01-14T10:22:06.921Z,927.6
2019-01-14T10:23:06.830Z,927.8
2019-01-14T10:24:06.565Z,927.6
2019-01-14T10:25:06.299Z,927.7
2019-01-14T10:26:06.209Z,927.6
2019-01-14T10:27:05.932Z,927.6
2019-01-14T10:28:06.278Z,927.6
2019-01-14T10:29:06.181Z,927.7
2019-01-14T10:30:06.077Z,927.5
2019-01-14T10:31:05.977Z,927.5
2019-01-14T10:32:05.871Z,927.7
2019-01-14T10:33:05.757Z,927.7
2019-01-14T10:34:05.681Z,927.6
2019-01-14T10:35:05.416Z,927.7
2019-01-14T10:36:05.326Z,927.8
2019-01-14T10:37:05.238Z,927.8
2019-01-14T10:38:05.564Z,927.7
2019-01-14T10:39:05.525Z,927.6
2019-01-14T10:40:05.455Z,927.8
2019-01-14T10:41:05.364Z,927.8
2019-01-14T10:42:06.039Z,927.7
2019-01-14T10:43:05.943Z,927.7
2019-01-14T10:44:05.853Z,927.6
2019-01-14T10:45:05.771Z,927.5
2019-01-14T10:46:05.696Z,927.7
2019-01-14T10:47:05.583Z,927.8
2019-01-14T10:48:05.969Z,927.8
2019-01-14T10:49:07.796Z,927.8
2019-01-14T10:50:07.717Z,927.7
2019-01-14T10:51:07.615Z,927.6
2019-01-14T10:52:07.518Z,927.6
2019-01-14T10:53:07.410Z,927.6
2019-01-14T10:54:07.321Z,927.6
2019-01-14T10:55:13.423Z,927.6
2019-01-14T10:56:13.310Z,927.5
2019-01-14T10:57:13.203Z,927.6
2019-01-14T10:58:13.515Z,927.6
2019-01-14T10:59:13.403Z,927.6
2019-01-14T11:00:13.316Z,927.6
2019-01-14T11:01:13.223Z,927.6
2019-01-14T11:02:13.155Z,927.4
2019-01-14T11:03:13.077Z,927.6
2019-01-14T11:04:14.047Z,927.6
2019-01-14T11:05:13.789Z,927.4
2019-01-14T11:06:13.536Z,927.6
2019-01-14T11:07:13.271Z,927.6
2019-01-14T11:08:13.592Z,927.5
2019-01-14T11:09:15.169Z,927.6
2019-01-14T11:10:15.061Z,927.5
2019-01-14T11:11:14.966Z,927.4
2019-01-14T11:12:14.859Z,927.4
2019-01-14T11:13:14.730Z,927.5
2019-01-14T11:14:14.643Z,927.5
2019-01-14T11:15:14.541Z,927.5
2019-01-14T11:16:14.458Z,927.5
2019-01-14T11:17:14.363Z,927.5
2019-01-14T11:18:14.675Z,927.4
2019-01-14T11:19:14.567Z,927.4
2019-01-14T11:20:14.451Z,927.5
2019-01-14T11:21:15.408Z,927.5
2019-01-14T11:22:15.307Z,927.4
2019-01-14T11:23:15.191Z,927.4
2019-01-14T11:24:15.065Z,927.4
2019-01-14T11:25:14.969Z,927.5
2019-01-14T11:26:14.871Z,927.5
2019-01-14T11:27:14.797Z,927.4
2019-01-14T11:28:15.092Z,927.3
2019-01-14T11:29:14.997Z,927.4
2019-01-14T11:30:15.039Z,927.4
2019-01-14T11:31:15.005Z,927.4
2019-01-14T11:32:14.935Z,927.4
2019-01-14T11:33:14.812Z,927.4
2019-01-14T11:34:14.701Z,927.4
2019-01-14T11:35:14.587Z,927.5
2019-01-14T11:36:14.491Z,927.2
2019-01-14T11:37:14.381Z,927.3
2019-01-14T11:38:14.712Z,927.3
2019-01-14T11:39:14.617Z,927.2
2019-01-14T11:40:14.501Z,927.4
2019-01-14T11:41:14.384Z,927.4
2019-01-14T11:42:14.277Z,927.3
2019-01-14T11:43:14.173Z,927.3
2019-01-14T11:44:14.078Z,927.3
2019-01-14T11:45:13.967Z,927.4
2019-01-14T11:46:13.841Z,927.2
2019-01-14T11:47:13.733Z,927.4
2019-01-14T11:48:14.111Z,927.3
2019-01-14T11:49:14.029Z,927.4
2019-01-14T11:50:13.914Z,927.4
2019-01-14T11:51:13.815Z,927.4
2019-01-14T11:52:13.692Z,927.3
2019-01-14T11:53:13.590Z,927.3
2019-01-14T11:54:13.532Z,927.3
2019-01-14T11:55:13.421Z,927.3
2019-01-14T11:56:13.324Z,927.3
2019-01-14T11:57:13.224Z,925.7
2019-01-14T11:58:13.550Z,927.3
2019-01-14T11:59:13.482Z,927.4
2019-01-14T12:00:13.361Z,927.3
2019-01-14T12:01:13.281Z,927.3
2019-01-14T12:02:13.180Z,927.4
2019-01-14T12:03:13.094Z,927.4
2019-01-14T12:04:12.994Z,927.3
2019-01-14T12:05:12.942Z,927.4
2019-01-14T12:06:12.847Z,927.3
2019-01-14T12:07:12.755Z,927.3
2019-01-14T12:08:13.085Z,927.4
2019-01-14T12:09:13.499Z,927.2
2019-01-14T12:10:13.423Z,927.5
2019-01-14T12:11:13.309Z,927.4
2019-01-14T12:12:13.198Z,927.3
2019-01-14T12:13:13.083Z,927.3
2019-01-14T12:14:12.974Z,927.4
2019-01-14T12:15:12.882Z,927.4
2019-01-14T12:16:12.803Z,927.4
2019-01-14T12:17:12.696Z,927.2
2019-01-14T12:18:13.092Z,927.2
2019-01-14T12:19:12.992Z,927.2
2019-01-14T12:20:12.892Z,927.2
2019-01-14T12:21:12.832Z,927.2
2019-01-14T12:22:12.718Z,927.2
2019-01-14T12:23:12.626Z,927.2
2019-01-14T12:24:12.518Z,927.2
2019-01-14T12:25:12.417Z,927.2
2019-01-14T12:26:12.333Z,927.3
2019-01-14T12:27:12.208Z,927.3
2019-01-14T12:28:12.530Z,927.4
2019-01-14T12:29:12.430Z,927.4
2019-01-14T12:30:12.338Z,927.4
2019-01-14T12:31:12.234Z,927.4
2019-01-14T12:32:12.137Z,927.4
2019-01-14T12:33:11.878Z,927.4
2019-01-14T12:34:11.616Z,927.3
2019-01-14T12:35:11.346Z,927.5
2019-01-14T12:36:11.072Z,927.4
2019-01-14T12:37:10.819Z,927.2
2019-01-14T12:38:11.148Z,927.5
2019-01-14T12:39:11.059Z,927.4
2019-01-14T12:40:10.963Z,927.4
2019-01-14T12:41:10.856Z,927.5
2019-01-14T12:42:10.728Z,927.4
2019-01-14T12:43:10.652Z,927.4
2019-01-14T12:44:10.542Z,927.2
2019-01-14T12:45:10.474Z,927.3
2019-01-14T12:46:10.346Z,927.3
2019-01-14T12:47:10.242Z,927.3
2019-01-14T12:48:10.618Z,927.2
2019-01-14T12:49:10.516Z,927.3
2019-01-14T12:50:10.448Z,927.3
2019-01-14T12:51:10.347Z,927.3
2019-01-14T12:52:10.246Z,927.2
2019-01-14T12:53:10.138Z,927.3
2019-01-14T12:54:10.053Z,927.2
2019-01-14T12:55:09.938Z,927.3
2019-01-14T12:56:09.843Z,927.3
2019-01-14T12:57:09.725Z,927.3